sensor_id;sensor_type;location;lat;lon;timestamp;temperature;humidity
61386;DHT22;47256;18.904;-99.054;2022-12-10T00:01:51;23.50;69.40
61386;DHT22;47256;18.904;-99.054;2022-12-10T00:04:19;23.40;68.70
61386;DHT22;47256;18.904;-99.054;2022-12-10T00:06:48;23.40;69.90
61386;DHT22;47256;18.904;-99.054;2022-12-10T00:09:17;23.30;69.00
61386;DHT22;47256;18.904;-99.054;2022-12-10T00:11:47;23.20;68.40
61386;DHT22;47256;18.904;-99.054;2022-12-10T00:14:15;23.20;70.90
61386;DHT22;47256;18.904;-99.054;2022-12-10T00:16:44;23.10;70.10
61386;DHT22;47256;18.904;-99.054;2022-12-10T00:19:11;23.00;71.00
61386;DHT22;47256;18.904;-99.054;2022-12-10T00:21:39;23.00;71.70
61386;DHT22;47256;18.904;-99.054;2022-12-10T00:24:09;22.90;72.40
61386;DHT22;47256;18.904;-99.054;2022-12-10T00:26:38;22.90;72.40
61386;DHT22;47256;18.904;-99.054;2022-12-10T00:29:07;22.80;73.20
61386;DHT22;47256;18.904;-99.054;2022-12-10T00:31:43;22.80;72.50
61386;DHT22;47256;18.904;-99.054;2022-12-10T00:34:12;22.70;73.90
61386;DHT22;47256;18.904;-99.054;2022-12-10T00:36:45;22.60;73.40
61386;DHT22;47256;18.904;-99.054;2022-12-10T00:39:18;22.50;73.00
61386;DHT22;47256;18.904;-99.054;2022-12-10T00:41:47;22.50;72.70
61386;DHT22;47256;18.904;-99.054;2022-12-10T00:44:16;22.50;72.30
61386;DHT22;47256;18.904;-99.054;2022-12-10T00:46:44;22.40;72.10
61386;DHT22;47256;18.904;-99.054;2022-12-10T00:49:12;22.30;73.00
61386;DHT22;47256;18.904;-99.054;2022-12-10T00:51:40;22.30;73.10
61386;DHT22;47256;18.904;-99.054;2022-12-10T00:54:08;22.30;73.00
61386;DHT22;47256;18.904;-99.054;2022-12-10T00:56:35;22.20;72.80
61386;DHT22;47256;18.904;-99.054;2022-12-10T00:59:08;22.20;73.70
61386;DHT22;47256;18.904;-99.054;2022-12-10T01:01:39;22.20;73.80
61386;DHT22;47256;18.904;-99.054;2022-12-10T01:04:15;22.20;73.40
61386;DHT22;47256;18.904;-99.054;2022-12-10T01:06:49;22.20;73.90
61386;DHT22;47256;18.904;-99.054;2022-12-10T01:09:25;22.10;75.90
61386;DHT22;47256;18.904;-99.054;2022-12-10T01:11:54;22.00;75.00
61386;DHT22;47256;18.904;-99.054;2022-12-10T01:14:27;22.00;74.40
61386;DHT22;47256;18.904;-99.054;2022-12-10T01:16:57;22.00;75.30
61386;DHT22;47256;18.904;-99.054;2022-12-10T01:19:26;22.00;74.80
61386;DHT22;47256;18.904;-99.054;2022-12-10T01:21:54;22.00;75.00
61386;DHT22;47256;18.904;-99.054;2022-12-10T01:24:25;22.00;74.90
61386;DHT22;47256;18.904;-99.054;2022-12-10T01:26:54;22.00;75.50
61386;DHT22;47256;18.904;-99.054;2022-12-10T01:29:25;22.00;77.10
61386;DHT22;47256;18.904;-99.054;2022-12-10T01:32:21;21.90;76.50
61386;DHT22;47256;18.904;-99.054;2022-12-10T01:34:48;21.80;75.80
61386;DHT22;47256;18.904;-99.054;2022-12-10T01:37:18;21.80;74.80
61386;DHT22;47256;18.904;-99.054;2022-12-10T01:39:46;21.80;75.00
61386;DHT22;47256;18.904;-99.054;2022-12-10T01:42:14;21.80;74.70
61386;DHT22;47256;18.904;-99.054;2022-12-10T01:47:10;21.80;74.80
61386;DHT22;47256;18.904;-99.054;2022-12-10T01:49:40;21.80;75.00
61386;DHT22;47256;18.904;-99.054;2022-12-10T01:52:10;21.80;75.10
61386;DHT22;47256;18.904;-99.054;2022-12-10T01:54:41;21.80;75.20
61386;DHT22;47256;18.904;-99.054;2022-12-10T01:57:24;21.80;75.30
61386;DHT22;47256;18.904;-99.054;2022-12-10T02:00:00;21.80;75.20
61386;DHT22;47256;18.904;-99.054;2022-12-10T02:11:13;21.70;76.40
61386;DHT22;47256;18.904;-99.054;2022-12-10T02:16:40;21.60;76.10
61386;DHT22;47256;18.904;-99.054;2022-12-10T02:21:50;21.50;78.70
61386;DHT22;47256;18.904;-99.054;2022-12-10T02:24:33;21.50;78.40
61386;DHT22;47256;18.904;-99.054;2022-12-10T02:29:41;21.40;79.70
61386;DHT22;47256;18.904;-99.054;2022-12-10T02:32:20;21.30;80.20
61386;DHT22;47256;18.904;-99.054;2022-12-10T02:35:01;21.20;79.30
61386;DHT22;47256;18.904;-99.054;2022-12-10T02:37:49;21.10;79.00
61386;DHT22;47256;18.904;-99.054;2022-12-10T02:40:31;21.00;79.20
61386;DHT22;47256;18.904;-99.054;2022-12-10T02:43:04;20.90;79.90
61386;DHT22;47256;18.904;-99.054;2022-12-10T02:45:38;20.90;80.10
61386;DHT22;47256;18.904;-99.054;2022-12-10T02:48:10;20.70;80.20
61386;DHT22;47256;18.904;-99.054;2022-12-10T02:50:44;20.50;80.50
61386;DHT22;47256;18.904;-99.054;2022-12-10T02:53:15;20.50;81.40
61386;DHT22;47256;18.904;-99.054;2022-12-10T02:59:17;20.40;83.20
61386;DHT22;47256;18.904;-99.054;2022-12-10T03:02:11;20.40;83.50
61386;DHT22;47256;18.904;-99.054;2022-12-10T03:05:16;20.40;82.30
61386;DHT22;47256;18.904;-99.054;2022-12-10T03:08:21;20.40;81.40
61386;DHT22;47256;18.904;-99.054;2022-12-10T03:13:39;20.50;81.50
61386;DHT22;47256;18.904;-99.054;2022-12-10T03:16:11;20.40;81.50
61386;DHT22;47256;18.904;-99.054;2022-12-10T03:18:41;20.30;81.30
61386;DHT22;47256;18.904;-99.054;2022-12-10T03:21:16;20.20;83.00
61386;DHT22;47256;18.904;-99.054;2022-12-10T03:23:47;20.20;83.50
61386;DHT22;47256;18.904;-99.054;2022-12-10T03:26:22;20.10;84.20
61386;DHT22;47256;18.904;-99.054;2022-12-10T03:28:57;20.10;83.70
61386;DHT22;47256;18.904;-99.054;2022-12-10T03:31:39;20.20;83.70
61386;DHT22;47256;18.904;-99.054;2022-12-10T03:34:12;20.20;83.80
61386;DHT22;47256;18.904;-99.054;2022-12-10T03:36:44;20.10;84.20
61386;DHT22;47256;18.904;-99.054;2022-12-10T03:39:13;20.10;83.70
61386;DHT22;47256;18.904;-99.054;2022-12-10T03:41:45;20.10;83.50
61386;DHT22;47256;18.904;-99.054;2022-12-10T03:44:27;20.00;83.50
61386;DHT22;47256;18.904;-99.054;2022-12-10T03:46:57;19.90;82.90
61386;DHT22;47256;18.904;-99.054;2022-12-10T03:49:27;19.70;83.10
61386;DHT22;47256;18.904;-99.054;2022-12-10T03:51:57;19.70;82.50
61386;DHT22;47256;18.904;-99.054;2022-12-10T03:54:27;19.70;82.70
61386;DHT22;47256;18.904;-99.054;2022-12-10T03:56:56;19.70;81.50
61386;DHT22;47256;18.904;-99.054;2022-12-10T03:59:55;19.80;81.60
61386;DHT22;47256;18.904;-99.054;2022-12-10T04:02:28;19.70;81.90
61386;DHT22;47256;18.904;-99.054;2022-12-10T04:04:59;19.70;81.50
61386;DHT22;47256;18.904;-99.054;2022-12-10T04:07:30;19.70;82.80
61386;DHT22;47256;18.904;-99.054;2022-12-10T04:09:59;19.60;82.70
61386;DHT22;47256;18.904;-99.054;2022-12-10T04:12:30;19.60;82.30
61386;DHT22;47256;18.904;-99.054;2022-12-10T04:14:59;19.60;82.70
61386;DHT22;47256;18.904;-99.054;2022-12-10T04:17:45;19.50;82.20
61386;DHT22;47256;18.904;-99.054;2022-12-10T04:20:15;19.50;83.20
61386;DHT22;47256;18.904;-99.054;2022-12-10T04:23:01;19.60;82.60
61386;DHT22;47256;18.904;-99.054;2022-12-10T04:25:47;19.50;82.90
61386;DHT22;47256;18.904;-99.054;2022-12-10T04:28:36;19.40;82.20
61386;DHT22;47256;18.904;-99.054;2022-12-10T04:31:05;19.50;83.10
61386;DHT22;47256;18.904;-99.054;2022-12-10T04:33:40;19.40;83.10
61386;DHT22;47256;18.904;-99.054;2022-12-10T04:36:16;19.30;83.50
61386;DHT22;47256;18.904;-99.054;2022-12-10T04:38:44;19.30;82.30
61386;DHT22;47256;18.904;-99.054;2022-12-10T04:41:11;19.30;82.70
61386;DHT22;47256;18.904;-99.054;2022-12-10T04:43:45;19.40;82.30
61386;DHT22;47256;18.904;-99.054;2022-12-10T04:46:16;19.40;83.30
61386;DHT22;47256;18.904;-99.054;2022-12-10T04:48:43;19.40;82.50
61386;DHT22;47256;18.904;-99.054;2022-12-10T04:51:11;19.50;83.90
61386;DHT22;47256;18.904;-99.054;2022-12-10T04:53:40;19.40;83.80
61386;DHT22;47256;18.904;-99.054;2022-12-10T04:56:13;19.30;83.20
61386;DHT22;47256;18.904;-99.054;2022-12-10T04:58:44;19.40;82.50
61386;DHT22;47256;18.904;-99.054;2022-12-10T05:01:12;19.40;82.50
61386;DHT22;47256;18.904;-99.054;2022-12-10T05:03:40;19.50;82.40
61386;DHT22;47256;18.904;-99.054;2022-12-10T05:06:13;19.50;82.00
61386;DHT22;47256;18.904;-99.054;2022-12-10T05:08:45;19.50;83.10
61386;DHT22;47256;18.904;-99.054;2022-12-10T05:11:18;19.40;83.40
61386;DHT22;47256;18.904;-99.054;2022-12-10T05:13:50;19.40;82.40
61386;DHT22;47256;18.904;-99.054;2022-12-10T05:16:20;19.40;83.30
61386;DHT22;47256;18.904;-99.054;2022-12-10T05:18:50;19.40;83.00
61386;DHT22;47256;18.904;-99.054;2022-12-10T05:21:26;19.30;82.50
61386;DHT22;47256;18.904;-99.054;2022-12-10T05:24:17;19.30;83.20
61386;DHT22;47256;18.904;-99.054;2022-12-10T05:26:47;19.30;83.50
61386;DHT22;47256;18.904;-99.054;2022-12-10T05:29:23;19.10;83.80
61386;DHT22;47256;18.904;-99.054;2022-12-10T05:31:56;19.10;83.60
61386;DHT22;47256;18.904;-99.054;2022-12-10T05:34:24;19.00;85.00
61386;DHT22;47256;18.904;-99.054;2022-12-10T05:36:53;19.00;85.20
61386;DHT22;47256;18.904;-99.054;2022-12-10T05:39:21;18.90;85.80
61386;DHT22;47256;18.904;-99.054;2022-12-10T05:41:51;18.80;86.10
61386;DHT22;47256;18.904;-99.054;2022-12-10T05:44:22;18.80;85.80
61386;DHT22;47256;18.904;-99.054;2022-12-10T05:46:50;18.70;86.70
61386;DHT22;47256;18.904;-99.054;2022-12-10T05:49:19;18.70;87.40
61386;DHT22;47256;18.904;-99.054;2022-12-10T05:51:47;18.70;87.50
61386;DHT22;47256;18.904;-99.054;2022-12-10T05:54:17;18.70;86.90
61386;DHT22;47256;18.904;-99.054;2022-12-10T05:56:45;18.80;87.30
61386;DHT22;47256;18.904;-99.054;2022-12-10T05:59:21;18.70;87.30
61386;DHT22;47256;18.904;-99.054;2022-12-10T06:01:49;18.70;87.60
61386;DHT22;47256;18.904;-99.054;2022-12-10T06:04:18;18.80;86.90
61386;DHT22;47256;18.904;-99.054;2022-12-10T06:06:50;18.80;87.40
61386;DHT22;47256;18.904;-99.054;2022-12-10T06:09:22;18.70;87.60
61386;DHT22;47256;18.904;-99.054;2022-12-10T06:11:49;18.80;87.70
61386;DHT22;47256;18.904;-99.054;2022-12-10T06:14:18;18.80;88.60
61386;DHT22;47256;18.904;-99.054;2022-12-10T06:16:48;18.70;88.20
61386;DHT22;47256;18.904;-99.054;2022-12-10T06:19:16;18.70;88.10
61386;DHT22;47256;18.904;-99.054;2022-12-10T06:21:50;18.70;88.10
61386;DHT22;47256;18.904;-99.054;2022-12-10T06:24:18;18.60;88.80
61386;DHT22;47256;18.904;-99.054;2022-12-10T06:26:48;18.60;88.80
61386;DHT22;47256;18.904;-99.054;2022-12-10T06:29:22;18.60;88.80
61386;DHT22;47256;18.904;-99.054;2022-12-10T06:31:50;18.60;89.00
61386;DHT22;47256;18.904;-99.054;2022-12-10T06:34:19;18.50;88.50
61386;DHT22;47256;18.904;-99.054;2022-12-10T06:36:48;18.40;88.70
61386;DHT22;47256;18.904;-99.054;2022-12-10T06:39:18;18.20;89.20
61386;DHT22;47256;18.904;-99.054;2022-12-10T06:41:46;18.20;89.90
61386;DHT22;47256;18.904;-99.054;2022-12-10T06:44:18;18.20;89.20
61386;DHT22;47256;18.904;-99.054;2022-12-10T06:46:47;18.20;89.30
61386;DHT22;47256;18.904;-99.054;2022-12-10T06:49:18;18.20;89.10
61386;DHT22;47256;18.904;-99.054;2022-12-10T06:51:47;18.20;89.00
61386;DHT22;47256;18.904;-99.054;2022-12-10T06:54:14;18.20;89.60
61386;DHT22;47256;18.904;-99.054;2022-12-10T06:56:43;18.10;88.50
61386;DHT22;47256;18.904;-99.054;2022-12-10T06:59:10;18.10;88.40
61386;DHT22;47256;18.904;-99.054;2022-12-10T07:01:38;18.00;88.30
61386;DHT22;47256;18.904;-99.054;2022-12-10T07:04:08;18.10;88.40
61386;DHT22;47256;18.904;-99.054;2022-12-10T07:06:38;18.10;88.50
61386;DHT22;47256;18.904;-99.054;2022-12-10T07:09:07;18.10;88.50
61386;DHT22;47256;18.904;-99.054;2022-12-10T07:11:36;18.10;88.50
61386;DHT22;47256;18.904;-99.054;2022-12-10T07:14:04;18.10;87.70
61386;DHT22;47256;18.904;-99.054;2022-12-10T07:16:32;18.20;88.30
61386;DHT22;47256;18.904;-99.054;2022-12-10T07:19:02;18.10;88.10
61386;DHT22;47256;18.904;-99.054;2022-12-10T07:21:33;18.10;88.50
61386;DHT22;47256;18.904;-99.054;2022-12-10T07:24:03;18.10;87.80
61386;DHT22;47256;18.904;-99.054;2022-12-10T07:26:33;18.00;88.30
61386;DHT22;47256;18.904;-99.054;2022-12-10T07:29:02;17.90;88.30
61386;DHT22;47256;18.904;-99.054;2022-12-10T07:31:33;17.90;88.80
61386;DHT22;47256;18.904;-99.054;2022-12-10T07:34:05;17.90;89.20
61386;DHT22;47256;18.904;-99.054;2022-12-10T07:36:33;17.90;89.30
61386;DHT22;47256;18.904;-99.054;2022-12-10T07:39:00;17.90;89.30
61386;DHT22;47256;18.904;-99.054;2022-12-10T07:41:29;18.00;89.30
61386;DHT22;47256;18.904;-99.054;2022-12-10T07:43:58;18.00;89.80
61386;DHT22;47256;18.904;-99.054;2022-12-10T07:46:30;18.00;89.00
61386;DHT22;47256;18.904;-99.054;2022-12-10T07:49:00;18.00;89.20
61386;DHT22;47256;18.904;-99.054;2022-12-10T07:51:28;18.00;89.40
61386;DHT22;47256;18.904;-99.054;2022-12-10T07:53:56;18.00;89.40
61386;DHT22;47256;18.904;-99.054;2022-12-10T07:56:24;18.00;90.00
61386;DHT22;47256;18.904;-99.054;2022-12-10T07:59:23;18.00;89.70
61386;DHT22;47256;18.904;-99.054;2022-12-10T08:01:53;18.00;90.00
61386;DHT22;47256;18.904;-99.054;2022-12-10T08:04:27;17.90;89.70
61386;DHT22;47256;18.904;-99.054;2022-12-10T08:07:06;17.90;89.60
61386;DHT22;47256;18.904;-99.054;2022-12-10T08:09:42;17.90;89.60
61386;DHT22;47256;18.904;-99.054;2022-12-10T08:12:19;17.80;90.00
61386;DHT22;47256;18.904;-99.054;2022-12-10T08:14:57;17.70;90.40
61386;DHT22;47256;18.904;-99.054;2022-12-10T08:17:35;17.70;90.40
61386;DHT22;47256;18.904;-99.054;2022-12-10T08:20:10;17.80;90.40
61386;DHT22;47256;18.904;-99.054;2022-12-10T08:22:51;17.80;90.60
61386;DHT22;47256;18.904;-99.054;2022-12-10T08:25:35;17.80;90.60
61386;DHT22;47256;18.904;-99.054;2022-12-10T08:28:20;17.80;90.40
61386;DHT22;47256;18.904;-99.054;2022-12-10T08:31:00;17.80;90.50
61386;DHT22;47256;18.904;-99.054;2022-12-10T08:33:43;17.80;90.50
61386;DHT22;47256;18.904;-99.054;2022-12-10T08:36:18;17.80;90.40
61386;DHT22;47256;18.904;-99.054;2022-12-10T08:39:23;17.80;90.50
61386;DHT22;47256;18.904;-99.054;2022-12-10T08:41:54;17.80;90.80
61386;DHT22;47256;18.904;-99.054;2022-12-10T08:44:33;17.70;90.80
61386;DHT22;47256;18.904;-99.054;2022-12-10T08:47:03;17.70;90.80
61386;DHT22;47256;18.904;-99.054;2022-12-10T08:49:37;17.60;90.70
61386;DHT22;47256;18.904;-99.054;2022-12-10T08:52:10;17.60;90.80
61386;DHT22;47256;18.904;-99.054;2022-12-10T08:54:49;17.60;90.70
61386;DHT22;47256;18.904;-99.054;2022-12-10T08:57:22;17.50;90.90
61386;DHT22;47256;18.904;-99.054;2022-12-10T09:00:00;17.40;90.90
61386;DHT22;47256;18.904;-99.054;2022-12-10T09:02:39;17.40;90.80
61386;DHT22;47256;18.904;-99.054;2022-12-10T09:05:24;17.30;90.90
61386;DHT22;47256;18.904;-99.054;2022-12-10T09:08:03;17.20;90.90
61386;DHT22;47256;18.904;-99.054;2022-12-10T09:10:42;17.10;91.10
61386;DHT22;47256;18.904;-99.054;2022-12-10T09:13:21;17.00;91.10
61386;DHT22;47256;18.904;-99.054;2022-12-10T09:16:33;17.10;91.20
61386;DHT22;47256;18.904;-99.054;2022-12-10T09:19:11;17.00;91.10
61386;DHT22;47256;18.904;-99.054;2022-12-10T09:21:53;17.00;91.20
61386;DHT22;47256;18.904;-99.054;2022-12-10T09:24:22;16.90;91.30
61386;DHT22;47256;18.904;-99.054;2022-12-10T09:27:01;16.70;91.70
61386;DHT22;47256;18.904;-99.054;2022-12-10T09:29:32;16.70;92.00
61386;DHT22;47256;18.904;-99.054;2022-12-10T09:32:04;16.80;91.80
61386;DHT22;47256;18.904;-99.054;2022-12-10T09:34:43;16.90;91.80
61386;DHT22;47256;18.904;-99.054;2022-12-10T09:37:19;16.80;91.70
61386;DHT22;47256;18.904;-99.054;2022-12-10T09:39:59;16.80;91.80
61386;DHT22;47256;18.904;-99.054;2022-12-10T09:42:38;16.90;91.90
61386;DHT22;47256;18.904;-99.054;2022-12-10T09:48:20;16.80;91.30
61386;DHT22;47256;18.904;-99.054;2022-12-10T09:54:44;17.00;91.60
61386;DHT22;47256;18.904;-99.054;2022-12-10T09:57:36;17.00;91.80
61386;DHT22;47256;18.904;-99.054;2022-12-10T10:03:04;16.80;91.70
61386;DHT22;47256;18.904;-99.054;2022-12-10T10:05:52;16.90;91.60
61386;DHT22;47256;18.904;-99.054;2022-12-10T10:11:20;16.80;91.60
61386;DHT22;47256;18.904;-99.054;2022-12-10T10:14:12;16.80;91.30
61386;DHT22;47256;18.904;-99.054;2022-12-10T10:17:03;16.70;91.60
61386;DHT22;47256;18.904;-99.054;2022-12-10T10:19:42;16.70;91.40
61386;DHT22;47256;18.904;-99.054;2022-12-10T10:22:21;16.50;91.90
61386;DHT22;47256;18.904;-99.054;2022-12-10T10:25:15;16.40;91.90
61386;DHT22;47256;18.904;-99.054;2022-12-10T10:27:50;16.50;92.20
61386;DHT22;47256;18.904;-99.054;2022-12-10T10:30:22;16.60;92.00
61386;DHT22;47256;18.904;-99.054;2022-12-10T10:32:58;16.70;92.00
61386;DHT22;47256;18.904;-99.054;2022-12-10T10:35:46;16.70;91.90
61386;DHT22;47256;18.904;-99.054;2022-12-10T10:38:30;16.60;92.00
61386;DHT22;47256;18.904;-99.054;2022-12-10T10:41:05;16.50;91.40
61386;DHT22;47256;18.904;-99.054;2022-12-10T10:44:21;16.40;91.70
61386;DHT22;47256;18.904;-99.054;2022-12-10T10:46:58;16.60;91.90
61386;DHT22;47256;18.904;-99.054;2022-12-10T10:49:47;16.50;91.90
61386;DHT22;47256;18.904;-99.054;2022-12-10T10:52:36;16.40;92.10
61386;DHT22;47256;18.904;-99.054;2022-12-10T10:55:32;16.50;92.00
61386;DHT22;47256;18.904;-99.054;2022-12-10T10:58:19;16.40;92.00
61386;DHT22;47256;18.904;-99.054;2022-12-10T11:01:07;16.40;92.20
61386;DHT22;47256;18.904;-99.054;2022-12-10T11:03:58;16.30;92.50
61386;DHT22;47256;18.904;-99.054;2022-12-10T11:06:59;16.20;92.50
61386;DHT22;47256;18.904;-99.054;2022-12-10T11:09:33;16.30;92.50
61386;DHT22;47256;18.904;-99.054;2022-12-10T11:15:28;16.40;92.40
61386;DHT22;47256;18.904;-99.054;2022-12-10T11:18:27;16.40;92.40
61386;DHT22;47256;18.904;-99.054;2022-12-10T11:21:21;16.40;92.40
61386;DHT22;47256;18.904;-99.054;2022-12-10T11:24:11;16.40;92.50
61386;DHT22;47256;18.904;-99.054;2022-12-10T11:27:07;16.40;92.30
61386;DHT22;47256;18.904;-99.054;2022-12-10T11:30:25;16.50;92.50
61386;DHT22;47256;18.904;-99.054;2022-12-10T11:33:25;16.40;92.50
61386;DHT22;47256;18.904;-99.054;2022-12-10T11:49:17;16.20;92.50
61386;DHT22;47256;18.904;-99.054;2022-12-10T11:58:48;16.30;92.30
61386;DHT22;47256;18.904;-99.054;2022-12-10T12:07:13;16.00;92.30
61386;DHT22;47256;18.904;-99.054;2022-12-10T12:13:04;15.90;92.30
61386;DHT22;47256;18.904;-99.054;2022-12-10T12:15:57;15.80;92.20
61386;DHT22;47256;18.904;-99.054;2022-12-10T12:21:29;15.80;92.60
61386;DHT22;47256;18.904;-99.054;2022-12-10T12:30:13;15.90;92.30
61386;DHT22;47256;18.904;-99.054;2022-12-10T12:33:35;15.90;92.30
61386;DHT22;47256;18.904;-99.054;2022-12-10T12:36:29;15.80;92.40
61386;DHT22;47256;18.904;-99.054;2022-12-10T12:39:43;15.90;92.60
61386;DHT22;47256;18.904;-99.054;2022-12-10T12:51:26;15.60;93.00
61386;DHT22;47256;18.904;-99.054;2022-12-10T12:54:16;15.60;93.30
61386;DHT22;47256;18.904;-99.054;2022-12-10T12:57:20;15.60;93.20
61386;DHT22;47256;18.904;-99.054;2022-12-10T13:00:18;15.70;93.30
61386;DHT22;47256;18.904;-99.054;2022-12-10T13:03:08;15.70;93.20
61386;DHT22;47256;18.904;-99.054;2022-12-10T13:05:52;15.80;93.30
61386;DHT22;47256;18.904;-99.054;2022-12-10T13:08:29;15.70;93.30
61386;DHT22;47256;18.904;-99.054;2022-12-10T13:11:29;15.70;93.30
61386;DHT22;47256;18.904;-99.054;2022-12-10T13:14:11;15.70;93.40
61386;DHT22;47256;18.904;-99.054;2022-12-10T13:23:30;15.40;93.40
61386;DHT22;47256;18.904;-99.054;2022-12-10T13:26:02;15.40;93.90
61386;DHT22;47256;18.904;-99.054;2022-12-10T13:28:52;15.40;93.90
61386;DHT22;47256;18.904;-99.054;2022-12-10T13:31:38;15.40;93.50
61386;DHT22;47256;18.904;-99.054;2022-12-10T13:34:32;15.50;94.00
61386;DHT22;47256;18.904;-99.054;2022-12-10T13:37:27;15.60;93.20
61386;DHT22;47256;18.904;-99.054;2022-12-10T13:43:37;15.70;93.30
61386;DHT22;47256;18.904;-99.054;2022-12-10T13:46:32;15.80;93.30
61386;DHT22;47256;18.904;-99.054;2022-12-10T13:49:12;15.80;93.40
61386;DHT22;47256;18.904;-99.054;2022-12-10T13:52:12;15.90;93.70
61386;DHT22;47256;18.904;-99.054;2022-12-10T13:58:18;16.30;93.80
61386;DHT22;47256;18.904;-99.054;2022-12-10T14:04:13;16.40;93.40
61386;DHT22;47256;18.904;-99.054;2022-12-10T14:07:00;16.60;93.30
61386;DHT22;47256;18.904;-99.054;2022-12-10T14:09:53;16.70;93.70
61386;DHT22;47256;18.904;-99.054;2022-12-10T14:12:41;16.80;93.50
61386;DHT22;47256;18.904;-99.054;2022-12-10T14:15:23;16.90;93.50
61386;DHT22;47256;18.904;-99.054;2022-12-10T14:18:25;17.10;93.50
61386;DHT22;47256;18.904;-99.054;2022-12-10T14:20:57;17.20;93.50
61386;DHT22;47256;18.904;-99.054;2022-12-10T14:23:46;17.40;93.10
61386;DHT22;47256;18.904;-99.054;2022-12-10T14:26:37;17.50;92.40
61386;DHT22;47256;18.904;-99.054;2022-12-10T14:29:21;17.70;93.30
61386;DHT22;47256;18.904;-99.054;2022-12-10T14:31:55;17.80;92.60
61386;DHT22;47256;18.904;-99.054;2022-12-10T14:34:29;18.00;92.70
61386;DHT22;47256;18.904;-99.054;2022-12-10T14:37:04;18.10;92.20
61386;DHT22;47256;18.904;-99.054;2022-12-10T14:40:04;18.30;92.60
61386;DHT22;47256;18.904;-99.054;2022-12-10T14:42:47;18.40;93.40
61386;DHT22;47256;18.904;-99.054;2022-12-10T14:45:25;18.60;92.80
61386;DHT22;47256;18.904;-99.054;2022-12-10T14:48:12;18.80;92.60
61386;DHT22;47256;18.904;-99.054;2022-12-10T14:50:48;19.00;93.00
61386;DHT22;47256;18.904;-99.054;2022-12-10T14:53:23;19.20;92.90
61386;DHT22;47256;18.904;-99.054;2022-12-10T14:55:57;19.30;91.30
61386;DHT22;47256;18.904;-99.054;2022-12-10T15:01:46;19.70;91.80
61386;DHT22;47256;18.904;-99.054;2022-12-10T15:04:21;19.80;90.50
61386;DHT22;47256;18.904;-99.054;2022-12-10T15:06:58;20.00;89.50
61386;DHT22;47256;18.904;-99.054;2022-12-10T15:09:34;20.10;89.30
61386;DHT22;47256;18.904;-99.054;2022-12-10T15:12:48;20.20;90.20
61386;DHT22;47256;18.904;-99.054;2022-12-10T15:18:09;20.60;86.30
61386;DHT22;47256;18.904;-99.054;2022-12-10T15:20:50;20.70;87.40
61386;DHT22;47256;18.904;-99.054;2022-12-10T15:23:36;20.90;86.50
61386;DHT22;47256;18.904;-99.054;2022-12-10T15:32:05;21.30;86.00
61386;DHT22;47256;18.904;-99.054;2022-12-10T15:34:47;21.50;86.20
61386;DHT22;47256;18.904;-99.054;2022-12-10T15:37:25;21.70;88.20
61386;DHT22;47256;18.904;-99.054;2022-12-10T15:40:00;21.80;85.30
61386;DHT22;47256;18.904;-99.054;2022-12-10T15:42:46;21.90;86.00
61386;DHT22;47256;18.904;-99.054;2022-12-10T15:48:00;22.20;87.30
61386;DHT22;47256;18.904;-99.054;2022-12-10T15:51:05;22.30;85.10
61386;DHT22;47256;18.904;-99.054;2022-12-10T15:53:44;22.50;83.00
61386;DHT22;47256;18.904;-99.054;2022-12-10T15:56:19;22.60;83.60
61386;DHT22;47256;18.904;-99.054;2022-12-10T15:58:59;22.80;83.50
61386;DHT22;47256;18.904;-99.054;2022-12-10T16:01:42;23.00;84.00
61386;DHT22;47256;18.904;-99.054;2022-12-10T16:04:24;23.10;83.60
61386;DHT22;47256;18.904;-99.054;2022-12-10T16:07:27;23.20;82.10
61386;DHT22;47256;18.904;-99.054;2022-12-10T16:10:00;23.10;81.40
61386;DHT22;47256;18.904;-99.054;2022-12-10T16:13:01;23.20;81.40
61386;DHT22;47256;18.904;-99.054;2022-12-10T16:15:52;23.40;81.80
61386;DHT22;47256;18.904;-99.054;2022-12-10T16:18:28;23.50;79.70
61386;DHT22;47256;18.904;-99.054;2022-12-10T16:21:00;23.50;81.10
61386;DHT22;47256;18.904;-99.054;2022-12-10T16:23:37;23.60;79.50
61386;DHT22;47256;18.904;-99.054;2022-12-10T16:26:21;23.60;79.00
61386;DHT22;47256;18.904;-99.054;2022-12-10T16:28:56;23.80;78.80
61386;DHT22;47256;18.904;-99.054;2022-12-10T16:31:32;23.90;78.90
61386;DHT22;47256;18.904;-99.054;2022-12-10T16:34:06;24.10;78.90
61386;DHT22;47256;18.904;-99.054;2022-12-10T16:36:38;24.20;78.80
61386;DHT22;47256;18.904;-99.054;2022-12-10T16:39:36;24.30;76.40
61386;DHT22;47256;18.904;-99.054;2022-12-10T16:42:13;24.40;76.80
61386;DHT22;47256;18.904;-99.054;2022-12-10T16:44:47;24.50;78.20
61386;DHT22;47256;18.904;-99.054;2022-12-10T16:47:19;24.50;75.60
61386;DHT22;47256;18.904;-99.054;2022-12-10T16:49:58;24.60;77.30
61386;DHT22;47256;18.904;-99.054;2022-12-10T16:52:31;24.80;77.40
61386;DHT22;47256;18.904;-99.054;2022-12-10T16:55:12;24.80;75.30
61386;DHT22;47256;18.904;-99.054;2022-12-10T16:58:10;24.90;74.80
61386;DHT22;47256;18.904;-99.054;2022-12-10T17:00:47;25.10;78.90
61386;DHT22;47256;18.904;-99.054;2022-12-10T17:03:30;25.10;75.90
61386;DHT22;47256;18.904;-99.054;2022-12-10T17:06:10;25.20;74.50
61386;DHT22;47256;18.904;-99.054;2022-12-10T17:08:44;25.30;71.50
61386;DHT22;47256;18.904;-99.054;2022-12-10T17:14:26;25.50;73.60
61386;DHT22;47256;18.904;-99.054;2022-12-10T17:17:03;25.50;71.50
61386;DHT22;47256;18.904;-99.054;2022-12-10T17:19:38;25.60;72.60
61386;DHT22;47256;18.904;-99.054;2022-12-10T17:22:15;25.70;73.50
61386;DHT22;47256;18.904;-99.054;2022-12-10T17:24:47;25.80;71.90
61386;DHT22;47256;18.904;-99.054;2022-12-10T17:27:19;25.80;72.70
61386;DHT22;47256;18.904;-99.054;2022-12-10T17:29:52;25.80;72.10
61386;DHT22;47256;18.904;-99.054;2022-12-10T17:32:24;25.80;71.10
61386;DHT22;47256;18.904;-99.054;2022-12-10T17:35:13;26.00;72.30
61386;DHT22;47256;18.904;-99.054;2022-12-10T17:37:46;26.00;70.00
61386;DHT22;47256;18.904;-99.054;2022-12-10T17:40:24;25.90;71.80
61386;DHT22;47256;18.904;-99.054;2022-12-10T17:42:56;26.00;71.20
61386;DHT22;47256;18.904;-99.054;2022-12-10T17:45:29;26.20;72.20
61386;DHT22;47256;18.904;-99.054;2022-12-10T17:47:59;26.30;69.80
61386;DHT22;47256;18.904;-99.054;2022-12-10T17:50:35;26.50;70.70
61386;DHT22;47256;18.904;-99.054;2022-12-10T17:53:10;26.60;69.70
61386;DHT22;47256;18.904;-99.054;2022-12-10T17:55:57;26.60;67.90
61386;DHT22;47256;18.904;-99.054;2022-12-10T17:58:33;26.40;70.00
61386;DHT22;47256;18.904;-99.054;2022-12-10T18:01:11;26.50;69.90
61386;DHT22;47256;18.904;-99.054;2022-12-10T18:03:46;26.60;71.60
61386;DHT22;47256;18.904;-99.054;2022-12-10T18:06:29;26.70;66.90
61386;DHT22;47256;18.904;-99.054;2022-12-10T18:09:01;26.80;66.20